createdAt,value
2019-03-27T00:00:57.701Z,96657
2019-03-27T00:02:07.200Z,96657
2019-03-27T00:03:16.717Z,96658
2019-03-27T00:04:26.209Z,96655
2019-03-27T00:05:35.713Z,96651
2019-03-27T00:06:45.212Z,96652
2019-03-27T00:07:54.720Z,96658
2019-03-27T00:09:04.239Z,96663
2019-03-27T00:10:13.755Z,96659
2019-03-27T00:11:23.249Z,96663
2019-03-27T00:12:32.748Z,96667
2019-03-27T00:13:42.270Z,96665
2019-03-27T00:14:51.771Z,96660
2019-03-27T00:16:02.265Z,96658
2019-03-27T00:17:11.768Z,96660
2019-03-27T00:18:21.302Z,96658
2019-03-27T00:19:30.789Z,96654
2019-03-27T00:20:40.290Z,96658
2019-03-27T00:21:49.794Z,96656
2019-03-27T00:22:59.297Z,96656
2019-03-27T00:24:08.811Z,96659
2019-03-27T00:25:18.317Z,96665
2019-03-27T00:26:27.817Z,96664
2019-03-27T00:27:37.340Z,96664
2019-03-27T00:28:46.847Z,96666
2019-03-27T00:29:56.346Z,96661
2019-03-27T00:31:05.842Z,96655
2019-03-27T00:32:15.333Z,96664
2019-03-27T00:33:24.846Z,96657
2019-03-27T00:34:34.341Z,96666
2019-03-27T00:35:43.837Z,96663
2019-03-27T00:36:53.342Z,96663
2019-03-27T00:38:02.838Z,96664
2019-03-27T00:39:12.361Z,96661
2019-03-27T00:40:21.860Z,96660
2019-03-27T00:41:31.355Z,96658
2019-03-27T00:42:40.879Z,96664
2019-03-27T00:43:50.368Z,96665
2019-03-27T00:44:59.871Z,96663
2019-03-27T00:46:09.375Z,96667
2019-03-27T00:47:18.877Z,96659
2019-03-27T00:48:28.390Z,96665
2019-03-27T00:49:37.899Z,96665
2019-03-27T00:50:47.408Z,96668
2019-03-27T00:51:56.917Z,96669
2019-03-27T00:53:06.417Z,96664
2019-03-27T00:54:15.938Z,96664
2019-03-27T00:55:25.436Z,96664
2019-03-27T00:56:34.961Z,96659
2019-03-27T00:57:44.455Z,96659
2019-03-27T00:58:53.972Z,96662
2019-03-27T01:00:03.477Z,96666
2019-03-27T01:01:12.976Z,96662
2019-03-27T01:02:22.471Z,96661
2019-03-27T01:03:32.000Z,96661
2019-03-27T01:04:41.504Z,96658
2019-03-27T01:05:51.016Z,96662
2019-03-27T01:07:00.509Z,96656
2019-03-27T01:08:10.007Z,96654
2019-03-27T01:09:19.522Z,96662
2019-03-27T01:10:29.034Z,96660
2019-03-27T01:11:38.534Z,96658
2019-03-27T01:12:48.032Z,96661
2019-03-27T01:13:57.560Z,96657
2019-03-27T01:15:07.058Z,96658
2019-03-27T01:16:16.555Z,96656
2019-03-27T01:17:26.059Z,96656
2019-03-27T01:18:35.561Z,96656
2019-03-27T01:19:45.089Z,96655
2019-03-27T01:20:54.591Z,96657
2019-03-27T01:22:04.105Z,96653
2019-03-27T01:23:13.606Z,96655
2019-03-27T01:24:23.122Z,96656
2019-03-27T01:25:32.621Z,96651
2019-03-27T01:26:42.143Z,96650
2019-03-27T01:27:51.648Z,96646
2019-03-27T01:29:01.165Z,96645
2019-03-27T01:30:10.663Z,96644
2019-03-27T01:31:20.161Z,96644
2019-03-27T01:32:30.654Z,96643
2019-03-27T01:33:40.158Z,96646
2019-03-27T01:34:49.673Z,96640
2019-03-27T01:35:59.170Z,96649
2019-03-27T01:37:08.674Z,96640
2019-03-27T01:38:18.176Z,96649
2019-03-27T01:39:27.688Z,96643
2019-03-27T01:40:38.179Z,96643
2019-03-27T01:41:47.697Z,96649
2019-03-27T01:42:57.197Z,96646
2019-03-27T01:44:06.709Z,96647
2019-03-27T01:45:16.206Z,96642
2019-03-27T01:46:25.704Z,96641
2019-03-27T01:47:35.212Z,96644
2019-03-27T01:48:44.712Z,96646
2019-03-27T01:49:54.224Z,96646
2019-03-27T01:51:03.720Z,96651
2019-03-27T01:52:13.226Z,96650
2019-03-27T01:53:22.734Z,96653
2019-03-27T01:54:32.265Z,96649
2019-03-27T01:55:41.757Z,96645
2019-03-27T01:56:51.264Z,96646
2019-03-27T01:58:00.770Z,96648
2019-03-27T01:59:10.284Z,96647
2019-03-27T02:00:19.783Z,96652
2019-03-27T02:01:29.311Z,96653
2019-03-27T02:02:38.814Z,96651
2019-03-27T02:03:48.316Z,96645
2019-03-27T02:04:57.825Z,96643
2019-03-27T02:06:07.321Z,96644
2019-03-27T02:07:16.827Z,96645
2019-03-27T02:08:26.319Z,96648
2019-03-27T02:09:35.838Z,96650
2019-03-27T02:10:45.343Z,96651
2019-03-27T02:11:54.847Z,96650
2019-03-27T02:13:04.354Z,96655
2019-03-27T02:14:13.868Z,96655
2019-03-27T02:15:23.368Z,96654
2019-03-27T02:16:32.872Z,96646
2019-03-27T02:17:42.381Z,96647
2019-03-27T02:18:51.878Z,96650
2019-03-27T02:20:01.397Z,96649
2019-03-27T02:21:10.892Z,96648
2019-03-27T02:22:20.402Z,96648
2019-03-27T02:23:30.895Z,96646
2019-03-27T02:24:40.408Z,96650
2019-03-27T02:25:49.910Z,96647
2019-03-27T02:26:59.410Z,96654
2019-03-27T02:28:08.912Z,96653
2019-03-27T02:29:18.426Z,96652
2019-03-27T02:30:27.928Z,96652
2019-03-27T02:31:37.431Z,96655
2019-03-27T02:32:46.932Z,96655
2019-03-27T02:33:56.439Z,96658
2019-03-27T02:35:05.959Z,96655
2019-03-27T02:36:15.472Z,96654
2019-03-27T02:37:24.966Z,96658
2019-03-27T02:38:34.465Z,96656
2019-03-27T02:39:43.980Z,96659
2019-03-27T02:40:53.483Z,96658
2019-03-27T02:42:03.005Z,96656
2019-03-27T02:43:12.484Z,96657
2019-03-27T02:44:22.006Z,96654
2019-03-27T02:45:31.500Z,96650
2019-03-27T02:46:41.007Z,96656
2019-03-27T02:47:50.511Z,96653
2019-03-27T02:49:00.009Z,96655
2019-03-27T02:50:09.516Z,96651
2019-03-27T02:51:19.020Z,96655
2019-03-27T02:52:28.529Z,96656
2019-03-27T02:53:38.039Z,96655
2019-03-27T02:54:47.553Z,96660
2019-03-27T02:55:57.048Z,96661
2019-03-27T02:57:06.545Z,96660
2019-03-27T02:58:16.043Z,96662
2019-03-27T02:59:25.560Z,96657
2019-03-27T03:00:35.053Z,96660
2019-03-27T03:01:47.775Z,96660
2019-03-27T03:02:54.034Z,96654
2019-03-27T03:04:03.534Z,96653
2019-03-27T03:05:13.046Z,96658
2019-03-27T03:06:22.558Z,96656
2019-03-27T03:07:32.071Z,96656
2019-03-27T03:08:41.561Z,96657
2019-03-27T03:09:51.079Z,96661
2019-03-27T03:11:00.571Z,96656
2019-03-27T03:12:10.074Z,96662
2019-03-27T03:13:19.578Z,96659
2019-03-27T03:14:29.090Z,96655
2019-03-27T03:15:38.596Z,96652
2019-03-27T03:16:48.119Z,96654
2019-03-27T03:17:57.618Z,96650
2019-03-27T03:19:07.116Z,96649
2019-03-27T03:20:16.627Z,96641
2019-03-27T03:21:26.134Z,96647
2019-03-27T03:22:36.629Z,96644
2019-03-27T03:23:46.127Z,96642
2019-03-27T03:24:55.638Z,96645
2019-03-27T03:26:05.135Z,96644
2019-03-27T03:27:14.639Z,96651
2019-03-27T03:28:24.141Z,96650
2019-03-27T03:29:33.657Z,96647
2019-03-27T03:30:43.158Z,96651
2019-03-27T03:31:52.650Z,96652
2019-03-27T03:33:02.156Z,96651
2019-03-27T03:34:11.652Z,96650
2019-03-27T03:35:21.172Z,96647
2019-03-27T03:36:30.695Z,96648
2019-03-27T03:37:40.170Z,96646
2019-03-27T03:38:49.671Z,96647
2019-03-27T03:39:59.179Z,96647
2019-03-27T03:41:08.689Z,96650
2019-03-27T03:42:18.183Z,96656
2019-03-27T03:43:27.680Z,96653
2019-03-27T03:44:37.200Z,96653
2019-03-27T03:45:46.698Z,96651
2019-03-27T03:46:59.810Z,96648
2019-03-27T03:48:05.680Z,96656
2019-03-27T03:49:15.180Z,96652
2019-03-27T03:50:24.696Z,96657
2019-03-27T03:51:34.198Z,96653
2019-03-27T03:52:45.722Z,96653
2019-03-27T03:53:53.191Z,96652
2019-03-27T03:55:02.710Z,96652
2019-03-27T03:56:12.205Z,96654
2019-03-27T03:57:21.709Z,96658
2019-03-27T03:58:31.215Z,96658
2019-03-27T03:59:40.761Z,96660
2019-03-27T04:00:50.286Z,96658
2019-03-27T04:01:59.779Z,96658
2019-03-27T04:03:09.279Z,96664
2019-03-27T04:04:18.780Z,96661
2019-03-27T04:05:28.286Z,96657
2019-03-27T04:06:37.791Z,96657
2019-03-27T04:07:47.292Z,96660
2019-03-27T04:08:56.793Z,96660
2019-03-27T04:10:06.305Z,96663
2019-03-27T04:11:15.809Z,96660
2019-03-27T04:12:25.308Z,96664
2019-03-27T04:13:34.806Z,96669
2019-03-27T04:14:44.309Z,96670
2019-03-27T04:15:53.833Z,96671
2019-03-27T04:17:16.045Z,96676
2019-03-27T04:18:13.795Z,96676
2019-03-27T04:19:23.288Z,96674
2019-03-27T04:20:32.814Z,96675
2019-03-27T04:21:42.310Z,96674
2019-03-27T04:22:52.815Z,96678
2019-03-27T04:24:02.315Z,96675
2019-03-27T04:25:11.832Z,96674
2019-03-27T04:26:21.331Z,96673
2019-03-27T04:27:30.853Z,96672
2019-03-27T04:28:40.416Z,96674
2019-03-27T04:29:49.856Z,96672
2019-03-27T04:30:59.379Z,96670
2019-03-27T04:32:08.883Z,96673
2019-03-27T04:33:18.389Z,96669
2019-03-27T04:34:27.895Z,96667
2019-03-27T04:35:37.418Z,96669
2019-03-27T04:36:46.925Z,96671
2019-03-27T04:37:56.430Z,96666
2019-03-27T04:39:05.932Z,96671
2019-03-27T04:40:15.459Z,96673
2019-03-27T04:41:24.975Z,96670
2019-03-27T04:42:34.487Z,96668
2019-03-27T04:43:43.981Z,96668
2019-03-27T04:44:53.488Z,96669
2019-03-27T04:46:03.007Z,96672
2019-03-27T04:47:12.507Z,96668
2019-03-27T04:48:23.010Z,96672
2019-03-27T04:49:32.514Z,96667
2019-03-27T04:50:42.046Z,96669
2019-03-27T04:51:51.556Z,96669
2019-03-27T04:53:01.059Z,96670
2019-03-27T04:54:10.562Z,96672
2019-03-27T04:55:20.079Z,96674
2019-03-27T04:56:29.585Z,96670
2019-03-27T04:57:39.090Z,96672
2019-03-27T04:58:48.604Z,96674
2019-03-27T04:59:58.104Z,96678
2019-03-27T05:01:07.638Z,96675
2019-03-27T05:02:17.143Z,96679
2019-03-27T05:03:26.649Z,96676
2019-03-27T05:04:36.183Z,96678
2019-03-27T05:05:45.704Z,96683
2019-03-27T05:06:55.217Z,96684
2019-03-27T05:08:04.727Z,96684
2019-03-27T05:09:14.229Z,96687
2019-03-27T05:10:23.750Z,96686
2019-03-27T05:11:33.251Z,96687
2019-03-27T05:12:42.760Z,96687
2019-03-27T05:13:52.265Z,96686
2019-03-27T05:15:01.774Z,96690
2019-03-27T05:16:11.294Z,96690
2019-03-27T05:17:20.815Z,96693
2019-03-27T05:18:30.324Z,96694
2019-03-27T05:19:39.853Z,96693
2019-03-27T05:20:49.387Z,96692
2019-03-27T05:21:58.907Z,96693
2019-03-27T05:23:08.428Z,96696
2019-03-27T05:24:17.932Z,96696
2019-03-27T05:25:27.452Z,96702
2019-03-27T05:26:36.973Z,96700
2019-03-27T05:27:46.567Z,96706
2019-03-27T05:28:56.073Z,96707
2019-03-27T05:30:05.584Z,96702
2019-03-27T05:31:15.102Z,96699
2019-03-27T05:32:24.620Z,96707
2019-03-27T05:33:34.124Z,96702
2019-03-27T05:34:43.636Z,96700
2019-03-27T05:35:53.157Z,96700
2019-03-27T05:37:02.661Z,96707
2019-03-27T05:38:12.167Z,96703
2019-03-27T05:39:21.667Z,96706
2019-03-27T05:40:31.177Z,96704
2019-03-27T05:41:40.733Z,96710
2019-03-27T05:43:00.327Z,96709
2019-03-27T05:44:00.821Z,96703
2019-03-27T05:45:10.247Z,96712
2019-03-27T05:46:19.766Z,96710
2019-03-27T05:47:29.285Z,96709
2019-03-27T05:48:38.808Z,96710
2019-03-27T05:49:48.329Z,96707
2019-03-27T05:50:57.863Z,96705
2019-03-27T05:52:07.374Z,96710
2019-03-27T05:53:16.889Z,96706
2019-03-27T05:54:26.416Z,96708
2019-03-27T05:55:35.919Z,96705
2019-03-27T05:56:45.451Z,96708
2019-03-27T05:57:54.962Z,96711
2019-03-27T05:59:04.463Z,96711
2019-03-27T06:00:13.980Z,96714
2019-03-27T06:01:23.510Z,96717
2019-03-27T06:02:33.011Z,96712
2019-03-27T06:03:42.516Z,96713
2019-03-27T06:04:52.022Z,96715
2019-03-27T06:06:01.579Z,96716
2019-03-27T06:07:11.085Z,96718
2019-03-27T06:08:20.616Z,96717
2019-03-27T06:09:30.123Z,96719
2019-03-27T06:10:39.622Z,96720
2019-03-27T06:11:49.142Z,96722
2019-03-27T06:12:58.653Z,96728
2019-03-27T06:14:08.166Z,96729
2019-03-27T06:15:17.671Z,96729
2019-03-27T06:16:27.259Z,96731
2019-03-27T06:17:36.708Z,96730
2019-03-27T06:18:46.222Z,96731
2019-03-27T06:19:55.731Z,96730
2019-03-27T06:21:05.273Z,96729
2019-03-27T06:22:15.132Z,96734
2019-03-27T06:23:24.321Z,96735
2019-03-27T06:24:33.826Z,96738
2019-03-27T06:25:43.330Z,96738
2019-03-27T06:26:52.856Z,96740
2019-03-27T06:28:02.359Z,96736
2019-03-27T06:29:11.876Z,96740
2019-03-27T06:30:21.388Z,96738
2019-03-27T06:31:30.909Z,96737
2019-03-27T06:32:40.423Z,96737
2019-03-27T06:33:49.929Z,96731
2019-03-27T06:34:59.443Z,96741
2019-03-27T06:36:08.943Z,96738
2019-03-27T06:37:18.496Z,96735
2019-03-27T06:38:28.003Z,96744
2019-03-27T06:39:37.506Z,96743
2019-03-27T06:40:47.014Z,96741
2019-03-27T06:41:56.529Z,96746
2019-03-27T06:43:06.035Z,96742
2019-03-27T06:44:15.548Z,96744
2019-03-27T06:45:25.054Z,96745
2019-03-27T06:46:34.575Z,96748
2019-03-27T06:47:44.081Z,96751
2019-03-27T06:48:53.594Z,96747
2019-03-27T06:52:43.295Z,96748
2019-03-27T06:53:52.803Z,96747
2019-03-27T06:55:02.294Z,96752
2019-03-27T06:56:11.807Z,96751
2019-03-27T06:57:21.350Z,96756
2019-03-27T06:58:30.857Z,96756
2019-03-27T06:59:40.368Z,96751
2019-03-27T07:00:49.871Z,96752
2019-03-27T07:01:59.390Z,96754
2019-03-27T07:03:08.892Z,96760
2019-03-27T07:04:18.471Z,96760
2019-03-27T07:05:27.903Z,96765
2019-03-27T07:06:37.447Z,96762
2019-03-27T07:07:46.957Z,96766
2019-03-27T07:08:56.462Z,96762
2019-03-27T07:10:05.959Z,96760
2019-03-27T07:11:15.486Z,96763
2019-03-27T07:12:25.015Z,96761
2019-03-27T07:13:34.521Z,96762
2019-03-27T07:14:44.020Z,96764
2019-03-27T07:15:53.531Z,96765
2019-03-27T07:17:03.050Z,96760
2019-03-27T07:18:12.550Z,96766
2019-03-27T07:19:22.044Z,96763
2019-03-27T07:20:31.562Z,96765
2019-03-27T07:21:42.050Z,96765
2019-03-27T07:22:51.568Z,96768
2019-03-27T07:24:01.077Z,96767
2019-03-27T07:25:10.593Z,96766
2019-03-27T07:26:20.101Z,96769
2019-03-27T07:27:29.618Z,96770
2019-03-27T07:28:39.114Z,96773
2019-03-27T07:29:48.613Z,96774
2019-03-27T07:30:58.111Z,96773
2019-03-27T07:32:07.612Z,96772
2019-03-27T07:33:17.171Z,96775
2019-03-27T07:34:26.672Z,96773
2019-03-27T07:35:36.179Z,96778
2019-03-27T07:36:45.681Z,96783
2019-03-27T07:37:55.201Z,96779
2019-03-27T07:39:10.686Z,96786
2019-03-27T07:40:14.185Z,96785
2019-03-27T07:41:23.690Z,96781
2019-03-27T07:42:33.212Z,96777
2019-03-27T07:43:42.717Z,96783
2019-03-27T07:44:52.224Z,96786
2019-03-27T07:46:01.727Z,96786
2019-03-27T07:47:11.231Z,96781
2019-03-27T07:48:20.790Z,96790
2019-03-27T07:49:30.292Z,96789
2019-03-27T07:50:39.799Z,96786
2019-03-27T07:51:49.311Z,96789
2019-03-27T07:52:58.827Z,96792
2019-03-27T07:54:08.336Z,96787
2019-03-27T07:55:19.460Z,96786
2019-03-27T07:56:27.322Z,96786
2019-03-27T07:57:36.850Z,96785
2019-03-27T07:58:46.396Z,96791
2019-03-27T07:59:55.860Z,96788
2019-03-27T08:01:05.366Z,96790
2019-03-27T08:02:14.873Z,96793
2019-03-27T08:03:24.388Z,96789
2019-03-27T08:04:33.899Z,96791
2019-03-27T08:05:43.413Z,96786
2019-03-27T08:06:52.907Z,96787
2019-03-27T08:08:02.430Z,96789
2019-03-27T08:09:11.930Z,96795
2019-03-27T08:10:21.435Z,96788
2019-03-27T08:11:31.049Z,96786
2019-03-27T08:12:40.467Z,96785
2019-03-27T08:13:49.963Z,96785
2019-03-27T08:14:59.475Z,96788
2019-03-27T08:16:08.976Z,96790
2019-03-27T08:17:18.487Z,96794
2019-03-27T08:18:28.009Z,96794
2019-03-27T08:19:37.512Z,96794
2019-03-27T08:20:47.017Z,96787
2019-03-27T08:21:56.527Z,96792
2019-03-27T08:23:06.061Z,96794
2019-03-27T08:24:15.566Z,96797
2019-03-27T08:25:25.074Z,96799
2019-03-27T08:26:34.575Z,96795
2019-03-27T08:27:44.084Z,96795
2019-03-27T08:28:53.623Z,96797
2019-03-27T08:30:03.131Z,96796
2019-03-27T08:31:12.635Z,96792
2019-03-27T08:32:22.138Z,96787
2019-03-27T08:33:31.644Z,96793
2019-03-27T08:34:41.143Z,96794
2019-03-27T08:35:50.650Z,96792
2019-03-27T08:37:00.184Z,96797
2019-03-27T08:38:09.706Z,96797
2019-03-27T08:39:19.202Z,96799
2019-03-27T08:40:28.715Z,96800
2019-03-27T08:41:38.223Z,96799
2019-03-27T08:42:47.730Z,96800
2019-03-27T08:43:57.251Z,96803
2019-03-27T08:45:06.755Z,96806
2019-03-27T08:46:16.263Z,96799
2019-03-27T08:47:25.779Z,96806
2019-03-27T08:48:35.313Z,96805
2019-03-27T08:49:44.819Z,96811
2019-03-27T08:50:54.328Z,96811
2019-03-27T08:52:03.837Z,96815
2019-03-27T08:53:13.356Z,96821
2019-03-27T08:54:22.867Z,96821
2019-03-27T08:55:32.381Z,96820
2019-03-27T08:56:41.887Z,96825
2019-03-27T08:57:51.399Z,96823
2019-03-27T08:59:00.919Z,96825
2019-03-27T09:00:10.424Z,96816
2019-03-27T09:01:19.930Z,96818
2019-03-27T09:02:29.439Z,96816
2019-03-27T09:03:38.959Z,96818
2019-03-27T09:04:48.460Z,96819
2019-03-27T09:05:57.994Z,96820
2019-03-27T09:07:07.512Z,96820
2019-03-27T09:08:17.015Z,96825
2019-03-27T09:09:26.520Z,96826
2019-03-27T09:10:36.088Z,96831
2019-03-27T09:11:45.610Z,96831
2019-03-27T09:12:55.120Z,96832
2019-03-27T09:14:04.629Z,96830
2019-03-27T09:15:14.128Z,96830
2019-03-27T09:16:23.654Z,96829
2019-03-27T09:17:33.149Z,96830
2019-03-27T09:18:42.653Z,96826
2019-03-27T09:19:52.157Z,96833
2019-03-27T09:21:02.678Z,96833
2019-03-27T09:22:12.173Z,96834
2019-03-27T09:23:21.683Z,96829
2019-03-27T09:24:31.192Z,96827
2019-03-27T09:25:40.699Z,96833
2019-03-27T09:26:50.217Z,96833
2019-03-27T09:27:59.724Z,96835
2019-03-27T09:29:09.219Z,96833
2019-03-27T09:30:18.731Z,96835
2019-03-27T09:31:28.238Z,96840
2019-03-27T09:32:38.722Z,96836
2019-03-27T09:33:48.237Z,96846
2019-03-27T09:34:57.753Z,96847
2019-03-27T09:36:07.422Z,96845
2019-03-27T09:37:16.778Z,96842
2019-03-27T09:38:26.292Z,96844
2019-03-27T09:39:35.792Z,96840
2019-03-27T09:40:45.301Z,96851
2019-03-27T09:41:54.814Z,96850
2019-03-27T09:43:04.317Z,96847
2019-03-27T09:44:13.813Z,96841
2019-03-27T09:45:23.317Z,96836
2019-03-27T09:46:32.834Z,96841
2019-03-27T09:47:42.350Z,96835
2019-03-27T09:48:51.856Z,96836
2019-03-27T09:50:01.370Z,96832
2019-03-27T09:51:10.874Z,96830
2019-03-27T09:52:20.409Z,96834
2019-03-27T09:53:29.912Z,96837
2019-03-27T09:54:39.416Z,96835
2019-03-27T09:55:48.927Z,96835
2019-03-27T09:56:58.449Z,96837
2019-03-27T09:58:07.959Z,96843
2019-03-27T09:59:17.466Z,96842
2019-03-27T10:00:26.980Z,96843
2019-03-27T10:01:36.499Z,96840
2019-03-27T10:02:46.010Z,96837
2019-03-27T10:03:56.515Z,96843
2019-03-27T10:05:06.013Z,96840
2019-03-27T10:06:15.585Z,96835
2019-03-27T10:07:25.092Z,96841
2019-03-27T10:08:34.587Z,96837
2019-03-27T10:09:44.088Z,96840
2019-03-27T10:10:53.583Z,96839
2019-03-27T10:12:03.102Z,96843
2019-03-27T10:13:12.605Z,96845
2019-03-27T10:14:22.111Z,96850
2019-03-27T10:15:31.617Z,96845
2019-03-27T10:16:41.138Z,96849
2019-03-27T10:17:50.649Z,96846
2019-03-27T10:19:00.158Z,96848
2019-03-27T10:20:09.665Z,96845
2019-03-27T10:21:19.179Z,96853
2019-03-27T10:22:28.685Z,96853
2019-03-27T10:23:38.190Z,96852
2019-03-27T10:24:47.688Z,96850
2019-03-27T10:25:57.189Z,96849
2019-03-27T10:27:06.703Z,96848
2019-03-27T10:28:16.196Z,96852
2019-03-27T10:29:25.701Z,96847
2019-03-27T10:30:35.206Z,96845
2019-03-27T10:31:44.725Z,96856
2019-03-27T10:32:54.229Z,96854
2019-03-27T10:34:03.731Z,96847
2019-03-27T10:35:13.243Z,96842
2019-03-27T10:36:22.757Z,96841
2019-03-27T10:37:32.288Z,96850
2019-03-27T10:38:42.028Z,96845
2019-03-27T10:39:51.296Z,96847
2019-03-27T10:41:00.805Z,96846
2019-03-27T10:42:10.348Z,96842
2019-03-27T10:43:19.863Z,96845
2019-03-27T10:44:29.377Z,96844
2019-03-27T10:45:38.874Z,96841
2019-03-27T10:46:48.394Z,96845
2019-03-27T10:47:57.917Z,96846
2019-03-27T10:49:07.390Z,96842
2019-03-27T10:50:18.011Z,96846
2019-03-27T10:51:26.378Z,96845
2019-03-27T10:52:35.897Z,96847
2019-03-27T10:53:45.400Z,96849
2019-03-27T10:54:54.907Z,96852
2019-03-27T10:56:04.413Z,96850
2019-03-27T10:57:13.921Z,96846
2019-03-27T10:58:23.428Z,96845
2019-03-27T10:59:32.931Z,96851
2019-03-27T11:00:42.430Z,96849
2019-03-27T11:01:52.001Z,96850
2019-03-27T11:03:01.494Z,96855
2019-03-27T11:04:10.994Z,96857
2019-03-27T11:05:20.505Z,96853
2019-03-27T11:06:30.009Z,96858
2019-03-27T11:07:39.543Z,96855
2019-03-27T11:08:49.054Z,96854
2019-03-27T11:09:58.561Z,96856
2019-03-27T11:11:08.077Z,96858
2019-03-27T11:12:17.584Z,96852
2019-03-27T11:13:27.098Z,96855
2019-03-27T11:14:38.414Z,96857
2019-03-27T11:15:47.089Z,96860
2019-03-27T11:16:56.601Z,96853
2019-03-27T11:18:06.128Z,96855
2019-03-27T11:19:15.639Z,96860
2019-03-27T11:20:30.612Z,96856
2019-03-27T11:21:34.642Z,96857
2019-03-27T11:22:44.162Z,96857
2019-03-27T11:23:53.679Z,96858
2019-03-27T11:25:03.187Z,96857
2019-03-27T11:26:12.713Z,96856
2019-03-27T11:27:22.227Z,96855
2019-03-27T11:28:31.723Z,96854
2019-03-27T11:29:41.229Z,96855
2019-03-27T11:30:50.731Z,96860
2019-03-27T11:32:00.239Z,96859
2019-03-27T11:33:09.752Z,96856
2019-03-27T11:34:19.253Z,96856
2019-03-27T11:35:28.763Z,96856
2019-03-27T11:36:38.273Z,96848
2019-03-27T11:37:47.781Z,96849
2019-03-27T11:38:57.292Z,96849
2019-03-27T11:40:06.804Z,96848
2019-03-27T11:41:16.304Z,96849
2019-03-27T11:42:25.830Z,96849
2019-03-27T11:43:35.342Z,96848
2019-03-27T11:44:45.840Z,96853
2019-03-27T11:45:55.345Z,96849
2019-03-27T11:47:04.841Z,96854
2019-03-27T11:48:14.357Z,96853
2019-03-27T11:49:23.865Z,96851
2019-03-27T11:50:43.983Z,96849
2019-03-27T11:51:43.835Z,96852
2019-03-27T11:52:53.354Z,96847
2019-03-27T11:54:02.865Z,96843
2019-03-27T11:55:12.365Z,96845
2019-03-27T11:56:21.865Z,96845
2019-03-27T11:57:31.378Z,96840
2019-03-27T11:58:40.882Z,96842
2019-03-27T11:59:54.021Z,96842
2019-03-27T12:00:59.903Z,96839
2019-03-27T12:02:09.398Z,96841
2019-03-27T12:03:18.914Z,96848
2019-03-27T12:04:28.431Z,96846
2019-03-27T12:05:37.947Z,96846
2019-03-27T12:06:48.463Z,96845
2019-03-27T12:07:57.996Z,96848
2019-03-27T12:09:07.496Z,96845
2019-03-27T12:10:17.008Z,96843
2019-03-27T12:11:26.497Z,96842
2019-03-27T12:12:37.008Z,96845
2019-03-27T12:13:46.513Z,96839
2019-03-27T12:14:56.030Z,96840
2019-03-27T12:16:05.525Z,96836
2019-03-27T12:17:15.028Z,96839
2019-03-27T12:18:24.553Z,96837
2019-03-27T12:19:37.703Z,96835
2019-03-27T12:20:57.676Z,96838
2019-03-27T12:21:55.091Z,96829
2019-03-27T12:23:04.520Z,96839
2019-03-27T12:24:14.025Z,96842
2019-03-27T12:25:23.527Z,96839
2019-03-27T12:26:33.027Z,96838
2019-03-27T12:27:42.538Z,96829
2019-03-27T12:28:52.110Z,96834
2019-03-27T12:30:01.605Z,96830
2019-03-27T12:31:11.105Z,96835
2019-03-27T12:32:20.625Z,96834
2019-03-27T12:33:30.131Z,96834
2019-03-27T12:34:39.638Z,96828
2019-03-27T12:35:49.138Z,96829
2019-03-27T12:36:58.657Z,96832
2019-03-27T12:38:08.181Z,96826
2019-03-27T12:39:17.681Z,96829
2019-03-27T12:40:27.191Z,96829
2019-03-27T12:41:36.692Z,96828
2019-03-27T12:42:46.196Z,96825
2019-03-27T12:43:55.707Z,96829
2019-03-27T12:45:05.209Z,96825
2019-03-27T12:46:14.704Z,96824
2019-03-27T12:47:24.202Z,96825
2019-03-27T12:48:33.727Z,96822
2019-03-27T12:49:43.226Z,96821
2019-03-27T12:50:53.737Z,96825
2019-03-27T12:52:05.547Z,96822
2019-03-27T12:53:13.728Z,96822
2019-03-27T12:54:23.234Z,96825
2019-03-27T12:55:33.722Z,96822
2019-03-27T12:56:43.224Z,96819
2019-03-27T12:57:52.804Z,96821
2019-03-27T12:59:02.316Z,96817
2019-03-27T13:00:11.809Z,96818
2019-03-27T13:01:21.321Z,96821
2019-03-27T13:02:30.826Z,96821
2019-03-27T13:03:40.344Z,96826
2019-03-27T13:04:49.839Z,96830
2019-03-27T13:05:59.370Z,96825
2019-03-27T13:07:08.852Z,96825
2019-03-27T13:08:18.370Z,96826
2019-03-27T13:09:27.865Z,96823
2019-03-27T13:10:37.406Z,96826
2019-03-27T13:11:46.910Z,96825
2019-03-27T13:12:56.410Z,96829
2019-03-27T13:14:05.953Z,96825
2019-03-27T13:15:15.454Z,96822
2019-03-27T13:16:24.959Z,96820
2019-03-27T13:17:34.528Z,96820
2019-03-27T13:18:43.977Z,96826
2019-03-27T13:19:53.480Z,96818
2019-03-27T13:21:02.985Z,96822
2019-03-27T13:22:12.485Z,96824
2019-03-27T13:23:22.002Z,96817
2019-03-27T13:24:31.504Z,96811
2019-03-27T13:25:41.008Z,96809
2019-03-27T13:26:50.519Z,96816
2019-03-27T13:28:00.010Z,96815
2019-03-27T13:29:09.532Z,96826
2019-03-27T13:30:19.040Z,96816
2019-03-27T13:31:28.544Z,96821
2019-03-27T13:32:38.051Z,96817
2019-03-27T13:33:50.149Z,96815
2019-03-27T13:34:57.072Z,96814
2019-03-27T13:36:06.579Z,96798
2019-03-27T13:37:16.063Z,96802
2019-03-27T13:38:25.619Z,96811
2019-03-27T13:39:35.124Z,96804
2019-03-27T13:40:44.628Z,96810
2019-03-27T13:41:54.123Z,96810
2019-03-27T13:43:03.630Z,96810
2019-03-27T13:44:13.153Z,96808
2019-03-27T13:45:22.652Z,96814
2019-03-27T13:46:32.159Z,96810
2019-03-27T13:47:41.662Z,96811
2019-03-27T13:48:51.188Z,96805
2019-03-27T13:50:00.690Z,96809
2019-03-27T13:51:10.195Z,96809
2019-03-27T13:52:19.697Z,96810
2019-03-27T13:53:29.212Z,96813
2019-03-27T13:54:38.742Z,96810
2019-03-27T13:55:48.263Z,96809
2019-03-27T13:56:57.758Z,96809
2019-03-27T13:58:07.263Z,96811
2019-03-27T13:59:16.789Z,96811
2019-03-27T14:00:26.299Z,96811
2019-03-27T14:01:35.790Z,96811
2019-03-27T14:02:45.293Z,96811
2019-03-27T14:03:54.814Z,96812
2019-03-27T14:05:04.316Z,96810
2019-03-27T14:06:13.826Z,96809
2019-03-27T14:07:23.344Z,96808
2019-03-27T14:08:32.861Z,96804
2019-03-27T14:09:42.364Z,96803
2019-03-27T14:10:51.861Z,96804
2019-03-27T14:12:01.364Z,96809
2019-03-27T14:13:10.867Z,96807
2019-03-27T14:14:20.392Z,96813
2019-03-27T14:15:29.896Z,96811
2019-03-27T14:16:39.403Z,96811
2019-03-27T14:17:48.908Z,96807
2019-03-27T14:18:58.431Z,96810
2019-03-27T14:20:07.930Z,96807
2019-03-27T14:21:17.445Z,96813
2019-03-27T14:22:26.938Z,96810
2019-03-27T14:23:36.439Z,96809
2019-03-27T14:24:45.969Z,96812
2019-03-27T14:25:55.486Z,96811
2019-03-27T14:27:04.989Z,96811
2019-03-27T14:28:14.498Z,96809
2019-03-27T14:29:24.016Z,96804
2019-03-27T14:30:33.519Z,96809
2019-03-27T14:31:43.026Z,96804
2019-03-27T14:32:52.543Z,96801
2019-03-27T14:34:02.064Z,96803
2019-03-27T14:35:11.588Z,96806
2019-03-27T14:36:21.096Z,96803
2019-03-27T14:37:30.611Z,96803
2019-03-27T14:38:40.117Z,96804
2019-03-27T14:39:49.676Z,96811
2019-03-27T14:40:59.181Z,96809
2019-03-27T14:42:08.682Z,96810
2019-03-27T14:43:18.180Z,96814
2019-03-27T14:44:28.695Z,96812
2019-03-27T14:45:38.224Z,96813
2019-03-27T14:46:47.732Z,96813
2019-03-27T14:47:57.237Z,96813
2019-03-27T14:49:06.734Z,96811
2019-03-27T14:50:16.266Z,96811
2019-03-27T14:51:25.783Z,96811
2019-03-27T14:52:35.297Z,96811
2019-03-27T14:53:44.800Z,96809
2019-03-27T14:54:54.314Z,96807
2019-03-27T14:56:04.807Z,96807
2019-03-27T14:57:14.305Z,96807
2019-03-27T14:58:23.824Z,96810